createdAt,value
2023-05-01T00:00:09.335Z,55.86
2023-05-01T00:02:57.398Z,56.07
2023-05-01T00:05:25.539Z,56.10
2023-05-01T00:07:53.507Z,55.80
2023-05-01T00:10:23.570Z,56.06
2023-05-01T00:12:51.396Z,56.15
2023-05-01T00:15:19.131Z,56.69
2023-05-01T00:17:47.110Z,56.79
2023-05-01T00:20:14.913Z,57.06
2023-05-01T00:22:42.747Z,57.03
2023-05-01T00:25:10.888Z,57.03
2023-05-01T00:27:38.879Z,57.00
2023-05-01T00:30:08.139Z,56.90
2023-05-01T00:32:35.922Z,56.98
2023-05-01T00:35:03.816Z,56.70
2023-05-01T00:37:31.582Z,56.66
2023-05-01T00:39:59.711Z,56.60
2023-05-01T00:42:27.693Z,56.87
2023-05-01T00:44:56.024Z,56.77
2023-05-01T00:47:23.830Z,56.78
2023-05-01T00:49:52.908Z,56.77
2023-05-01T00:52:20.743Z,56.60
2023-05-01T00:54:52.065Z,56.78
2023-05-01T00:57:20.756Z,56.64
2023-05-01T00:59:48.796Z,56.76
2023-05-01T01:02:16.544Z,56.36
2023-05-01T01:04:46.373Z,56.36
2023-05-01T01:07:47.724Z,56.66
2023-05-01T01:10:41.464Z,56.65
2023-05-01T01:13:26.681Z,56.53
2023-05-01T01:16:10.314Z,56.89
2023-05-01T01:18:53.587Z,56.59
2023-05-01T01:21:24.423Z,56.85
2023-05-01T01:24:23.598Z,57.17
2023-05-01T01:26:57.167Z,57.31
2023-05-01T01:29:34.166Z,57.82
2023-05-01T01:32:17.124Z,58.04
2023-05-01T01:34:48.571Z,58.04
2023-05-01T01:37:29.684Z,57.91
2023-05-01T01:40:07.578Z,57.95
2023-05-01T01:42:43.329Z,58.27
2023-05-01T01:45:20.022Z,58.09
2023-05-01T01:47:48.456Z,58.32
2023-05-01T01:50:17.597Z,58.53
2023-05-01T01:52:47.929Z,58.62
2023-05-01T01:55:17.126Z,58.32
2023-05-01T01:57:45.488Z,58.42
2023-05-01T02:00:14.156Z,58.72
2023-05-01T02:02:44.418Z,58.85
2023-05-01T02:05:15.080Z,58.82
2023-05-01T02:07:46.346Z,58.87
2023-05-01T02:10:16.153Z,58.58
2023-05-01T02:12:46.480Z,58.47
2023-05-01T02:15:17.237Z,58.33
2023-05-01T02:17:45.806Z,58.17
2023-05-01T02:20:13.794Z,58.21
2023-05-01T02:22:42.446Z,58.02
2023-05-01T02:25:11.980Z,58.05
2023-05-01T02:27:50.363Z,57.83
2023-05-01T02:30:18.857Z,57.75
2023-05-01T02:32:46.685Z,58.12
2023-05-01T02:35:14.490Z,58.18
2023-05-01T02:37:42.933Z,58.33
2023-05-01T02:40:12.546Z,58.36
2023-05-01T02:42:42.408Z,58.48
2023-05-01T02:45:13.169Z,58.39
2023-05-01T02:47:41.485Z,58.65
2023-05-01T02:50:10.224Z,58.90
2023-05-01T02:52:38.478Z,58.93
2023-05-01T02:55:27.195Z,58.71
2023-05-01T02:57:59.300Z,59.13
2023-05-01T03:00:27.814Z,59.33
2023-05-01T03:02:55.654Z,58.90
2023-05-01T03:05:23.545Z,58.96
2023-05-01T03:07:51.400Z,59.16
2023-05-01T03:10:19.275Z,59.02
2023-05-01T03:12:47.100Z,59.07
2023-05-01T03:15:14.933Z,58.85
2023-05-01T03:17:43.349Z,58.91
2023-05-01T03:20:11.786Z,59.12
2023-05-01T03:22:39.785Z,59.14
2023-05-01T03:25:09.365Z,58.83
2023-05-01T03:27:37.436Z,58.45
2023-05-01T03:30:06.072Z,58.57
2023-05-01T03:32:34.894Z,58.45
2023-05-01T03:35:02.936Z,58.48
2023-05-01T03:37:30.702Z,58.85
2023-05-01T03:39:58.655Z,58.94
2023-05-01T03:42:45.521Z,59.10
2023-05-01T03:45:19.623Z,59.56
2023-05-01T03:47:47.596Z,58.96
2023-05-01T03:50:16.409Z,58.97
2023-05-01T03:52:45.020Z,58.90
2023-05-01T03:55:12.893Z,59.08
2023-05-01T03:57:47.108Z,58.92
2023-05-01T04:00:15.224Z,59.07
2023-05-01T04:02:47.579Z,59.22
2023-05-01T04:05:19.272Z,58.72
2023-05-01T04:07:51.033Z,58.99
2023-05-01T04:10:18.928Z,59.17
2023-05-01T04:12:55.208Z,59.03
2023-05-01T04:15:23.038Z,59.32
2023-05-01T04:17:51.246Z,59.43
2023-05-01T04:20:19.562Z,59.26
2023-05-01T04:22:47.869Z,59.29
2023-05-01T04:25:15.821Z,58.82
2023-05-01T04:27:44.095Z,58.79
2023-05-01T04:30:12.212Z,58.94
2023-05-01T04:32:40.673Z,59.02
2023-05-01T04:35:09.650Z,59.32
2023-05-01T04:37:38.308Z,59.49
2023-05-01T04:40:08.097Z,59.44
2023-05-01T04:42:37.048Z,59.16
2023-05-01T04:45:05.426Z,59.12
2023-05-01T04:47:35.831Z,59.14
2023-05-01T04:50:04.369Z,59.26
2023-05-01T04:52:32.651Z,59.18
2023-05-01T04:55:03.747Z,58.87
2023-05-01T04:57:32.584Z,58.86
2023-05-01T05:00:01.278Z,58.73
2023-05-01T05:02:31.843Z,58.49
2023-05-01T05:04:59.740Z,58.46
2023-05-01T05:07:27.518Z,58.00
2023-05-01T05:10:21.908Z,57.67
2023-05-01T05:12:59.606Z,57.21
2023-05-01T05:15:27.651Z,56.58
2023-05-01T05:17:56.594Z,56.32
2023-05-01T05:20:26.097Z,55.68
2023-05-01T05:22:53.976Z,55.11
2023-05-01T05:25:24.477Z,54.39
2023-05-01T05:27:53.190Z,53.91
2023-05-01T05:30:21.312Z,53.52
2023-05-01T05:32:49.661Z,52.80
2023-05-01T05:35:17.616Z,52.26
2023-05-01T05:37:46.265Z,52.06
2023-05-01T05:40:14.641Z,51.81
2023-05-01T05:42:53.513Z,51.89
2023-05-01T05:45:21.280Z,51.63
2023-05-01T05:47:49.386Z,51.87
2023-05-01T05:50:17.421Z,51.74
2023-05-01T05:52:46.117Z,51.25
2023-05-01T05:55:14.146Z,51.11
2023-05-01T05:57:43.787Z,50.88
2023-05-01T06:00:12.730Z,50.61
2023-05-01T06:02:44.676Z,50.53
2023-05-01T06:05:13.465Z,50.65
2023-05-01T06:07:41.328Z,50.71
2023-05-01T06:10:09.789Z,50.88
2023-05-01T06:12:39.298Z,50.48
2023-05-01T06:15:17.001Z,49.74
2023-05-01T06:17:48.894Z,49.61
2023-05-01T06:20:16.909Z,49.33
2023-05-01T06:22:45.246Z,49.45
2023-05-01T06:25:17.695Z,49.11
2023-05-01T06:27:45.852Z,48.63
2023-05-01T06:30:13.747Z,48.49
2023-05-01T06:32:45.768Z,47.99
2023-05-01T06:35:14.484Z,47.34
2023-05-01T06:37:42.217Z,47.39
2023-05-01T06:40:11.624Z,47.53
2023-05-01T06:42:40.251Z,47.66
2023-05-01T06:45:08.431Z,47.65
2023-05-01T06:47:36.456Z,47.49
2023-05-01T06:50:05.663Z,46.96
2023-05-01T06:52:34.424Z,47.06
2023-05-01T06:55:02.208Z,46.80
2023-05-01T06:57:31.173Z,46.25
2023-05-01T06:59:59.222Z,45.93
2023-05-01T07:02:27.385Z,45.61
2023-05-01T07:04:55.525Z,45.74
2023-05-01T07:07:23.650Z,45.75
2023-05-01T07:09:51.606Z,45.37
2023-05-01T07:12:19.411Z,45.83
2023-05-01T07:14:47.445Z,45.79
2023-05-01T07:17:15.831Z,45.56
2023-05-01T07:19:43.511Z,45.07
2023-05-01T07:22:11.215Z,44.70
2023-05-01T07:24:38.978Z,44.41
2023-05-01T07:27:06.709Z,43.35
2023-05-01T07:29:37.470Z,43.64
2023-05-01T07:32:07.159Z,43.58
2023-05-01T07:34:35.008Z,42.60
2023-05-01T07:37:04.787Z,43.07
2023-05-01T07:39:32.618Z,42.67
2023-05-01T07:42:00.599Z,42.14
2023-05-01T07:44:28.396Z,40.58
2023-05-01T07:46:56.161Z,40.07
2023-05-01T07:49:24.495Z,40.25
2023-05-01T07:51:52.550Z,39.65
2023-05-01T07:54:22.162Z,39.68
2023-05-01T07:56:50.070Z,39.94
2023-05-01T07:59:17.811Z,39.94
2023-05-01T13:02:36.460Z,18.78
2023-05-01T13:05:11.126Z,19.43
2023-05-01T13:07:41.701Z,18.89
2023-05-01T13:10:10.598Z,18.82
2023-05-01T13:12:44.727Z,19.11
2023-05-01T13:15:22.235Z,19.20
2023-05-01T13:17:50.154Z,19.15
2023-05-01T13:20:26.802Z,19.23
2023-05-01T13:22:54.720Z,18.49
2023-05-01T13:25:23.379Z,18.21
2023-05-01T13:27:54.113Z,17.88
2023-05-01T13:30:33.318Z,18.07
2023-05-01T13:33:02.034Z,17.54
2023-05-01T13:35:30.683Z,17.91
2023-05-01T13:37:58.454Z,17.47
2023-05-01T13:40:26.521Z,17.20
2023-05-01T13:42:54.334Z,17.73
2023-05-01T13:45:22.257Z,17.66
2023-05-01T13:47:51.914Z,17.76
2023-05-01T13:50:19.777Z,17.06
2023-05-01T13:52:48.430Z,17.86
2023-05-01T13:55:17.619Z,18.05
2023-05-01T13:57:45.480Z,17.18
2023-05-01T14:00:17.817Z,17.01
2023-05-01T14:02:50.157Z,16.75
2023-05-01T14:05:23.605Z,17.04
2023-05-01T14:07:55.335Z,17.03
2023-05-01T14:10:28.032Z,16.95
2023-05-01T14:12:59.744Z,15.89
2023-05-01T14:15:28.746Z,15.35
2023-05-01T14:17:56.675Z,14.92
2023-05-01T14:20:25.366Z,15.30
2023-05-01T14:22:53.641Z,15.62
2023-05-01T14:25:30.608Z,15.85
2023-05-01T14:28:00.493Z,15.41
2023-05-01T14:30:37.586Z,15.86
2023-05-01T14:33:09.637Z,16.53
2023-05-01T14:35:48.814Z,16.49
2023-05-01T14:38:18.780Z,16.37
2023-05-01T14:40:46.883Z,16.52
2023-05-01T14:43:20.124Z,17.06
2023-05-01T14:45:49.929Z,17.62
2023-05-01T14:48:30.519Z,17.45
2023-05-01T14:50:59.487Z,17.43
2023-05-01T14:53:32.318Z,17.20
2023-05-01T14:56:00.116Z,17.04
2023-05-01T14:58:28.236Z,16.22
2023-05-01T15:00:57.453Z,15.31
2023-05-01T15:03:25.517Z,15.15
2023-05-01T15:05:53.326Z,14.60
2023-05-01T15:08:21.581Z,14.15
2023-05-01T15:10:49.337Z,13.15
2023-05-01T15:13:17.080Z,12.58
2023-05-01T15:15:44.812Z,12.87
2023-05-01T15:18:12.603Z,12.89
2023-05-01T15:20:40.989Z,12.42
2023-05-01T15:23:10.646Z,12.58
2023-05-01T15:25:38.476Z,12.73
2023-05-01T15:28:06.202Z,12.39
2023-05-01T15:30:33.997Z,12.71
2023-05-01T15:33:01.818Z,13.71
2023-05-01T15:35:30.191Z,14.28
2023-05-01T15:37:58.112Z,15.04
2023-05-01T15:40:26.206Z,15.55
2023-05-01T15:42:54.416Z,16.78
2023-05-01T15:45:22.234Z,16.67
2023-05-01T15:47:50.069Z,16.75
2023-05-01T15:50:17.845Z,16.28
2023-05-01T15:52:46.127Z,16.36
2023-05-01T15:55:13.934Z,16.57
2023-05-01T15:57:45.610Z,16.98
2023-05-01T16:00:14.629Z,17.27
2023-05-01T16:02:44.623Z,17.25
2023-05-01T16:05:15.158Z,17.67
2023-05-01T16:07:43.791Z,17.84
2023-05-01T16:10:11.913Z,18.21
2023-05-01T16:12:39.678Z,18.20
2023-05-01T16:15:08.836Z,16.66
2023-05-01T16:17:43.749Z,15.90
2023-05-01T16:20:13.156Z,14.82
2023-05-01T16:22:41.880Z,13.66
2023-05-01T16:25:10.609Z,13.60
2023-05-01T16:27:45.914Z,13.33
2023-05-01T16:30:17.080Z,13.58
2023-05-01T16:32:46.300Z,13.66
2023-05-01T16:35:18.370Z,13.20
2023-05-01T16:37:46.236Z,12.72
2023-05-01T16:40:18.043Z,12.39
2023-05-01T16:42:53.393Z,12.37
2023-05-01T16:45:21.705Z,12.17
2023-05-01T16:47:49.832Z,12.31
2023-05-01T16:50:18.295Z,12.75
2023-05-01T16:52:46.029Z,12.81
2023-05-01T16:55:13.830Z,12.93
2023-05-01T16:57:44.278Z,12.95
2023-05-01T17:00:14.110Z,12.70
2023-05-01T17:02:42.128Z,12.96
2023-05-01T17:05:09.969Z,13.52
2023-05-01T17:07:37.759Z,13.81
2023-05-01T17:10:06.482Z,13.92
2023-05-01T17:12:34.367Z,14.14
2023-05-01T17:15:02.599Z,14.88
2023-05-01T17:17:30.952Z,16.06
2023-05-01T17:19:59.181Z,17.08
2023-05-01T17:22:29.061Z,18.57
2023-05-01T17:24:57.703Z,19.31
2023-05-01T17:27:25.457Z,20.54
2023-05-01T17:29:53.167Z,21.59
2023-05-01T17:32:35.847Z,22.28
2023-05-01T17:35:05.131Z,23.02
2023-05-01T17:37:33.257Z,23.75
2023-05-01T17:40:01.862Z,24.63
2023-05-01T17:42:30.019Z,25.30
2023-05-01T17:44:57.874Z,26.09
2023-05-01T17:47:26.361Z,26.58
2023-05-01T17:49:54.273Z,27.40
2023-05-01T17:52:22.236Z,27.98
2023-05-01T17:54:49.931Z,28.09
2023-05-01T17:57:17.662Z,28.76
2023-05-01T17:59:45.909Z,29.36
2023-05-01T18:02:13.778Z,29.74
2023-05-01T18:04:41.576Z,30.19
2023-05-01T18:07:09.531Z,31.12
2023-05-01T18:09:37.217Z,31.31
2023-05-01T18:12:05.711Z,31.86
2023-05-01T18:14:33.538Z,32.11
2023-05-01T18:17:01.364Z,32.39
2023-05-01T18:19:29.402Z,32.82
2023-05-01T18:21:57.562Z,33.40
2023-05-01T18:24:25.276Z,33.54
2023-05-01T18:26:53.090Z,34.21
2023-05-01T18:29:22.821Z,34.22
2023-05-01T18:31:51.121Z,34.65
2023-05-01T18:34:19.702Z,35.12
2023-05-01T18:36:52.003Z,35.63
2023-05-01T18:39:23.116Z,35.87
2023-05-01T18:41:51.306Z,35.92
2023-05-01T18:44:19.222Z,36.01
2023-05-01T18:46:46.995Z,36.41
2023-05-01T18:49:14.875Z,36.67
2023-05-01T18:51:42.745Z,36.76
2023-05-01T18:54:10.663Z,37.38
2023-05-01T18:56:38.403Z,37.48
2023-05-01T18:59:07.504Z,37.70
2023-05-01T19:01:36.344Z,37.71
2023-05-01T19:04:04.440Z,38.13
2023-05-01T19:06:32.703Z,38.44
2023-05-01T19:09:00.976Z,38.53
2023-05-01T19:11:31.748Z,38.86
2023-05-01T19:13:59.619Z,38.78
2023-05-01T19:16:27.372Z,38.98
2023-05-01T19:18:55.117Z,39.11
2023-05-01T19:21:23.266Z,39.32
2023-05-01T19:23:51.096Z,39.61
2023-05-01T19:26:18.903Z,39.74
2023-05-01T19:28:46.955Z,40.42
2023-05-01T19:31:19.025Z,40.63
2023-05-01T19:33:50.751Z,40.77
2023-05-01T19:36:18.607Z,40.74
2023-05-01T19:38:46.661Z,40.90
2023-05-01T19:41:14.613Z,40.98
2023-05-01T19:43:43.629Z,41.18
2023-05-01T19:46:15.300Z,41.41
2023-05-01T19:48:52.631Z,41.51
2023-05-01T19:51:23.162Z,41.66
2023-05-01T19:53:53.889Z,41.69
2023-05-01T19:56:21.769Z,42.00
2023-05-01T19:58:49.618Z,41.97
2023-05-01T20:01:17.642Z,42.18
2023-05-01T20:03:45.763Z,42.49
2023-05-01T20:06:14.554Z,42.62
2023-05-01T20:08:42.836Z,42.74
2023-05-01T20:11:10.988Z,42.90
2023-05-01T20:13:38.761Z,43.15
2023-05-01T20:16:06.867Z,43.22
2023-05-01T20:18:34.835Z,43.53
2023-05-01T20:21:02.923Z,43.84
2023-05-01T20:23:31.007Z,44.26
2023-05-01T20:25:59.927Z,44.54
2023-05-01T20:28:28.552Z,45.08
2023-05-01T20:30:56.727Z,44.95
2023-05-01T20:33:24.812Z,45.24
2023-05-01T20:35:53.095Z,45.32
2023-05-01T20:38:21.964Z,45.54
2023-05-01T20:40:50.014Z,45.80
2023-05-01T20:43:17.786Z,45.89
2023-05-01T20:45:45.523Z,46.10
2023-05-01T20:48:13.402Z,46.13
2023-05-01T20:50:48.886Z,46.14
2023-05-01T20:53:16.872Z,46.21
2023-05-01T20:55:44.746Z,46.17
2023-05-01T20:58:12.604Z,46.37
2023-05-01T21:00:40.403Z,46.58
2023-05-01T21:03:09.401Z,46.70
2023-05-01T21:05:37.250Z,46.95
2023-05-01T21:08:05.098Z,47.12
2023-05-01T21:10:32.878Z,47.24
2023-05-01T21:13:00.899Z,47.33
2023-05-01T21:15:31.161Z,47.49
2023-05-01T21:17:58.893Z,47.73
2023-05-01T21:20:31.530Z,47.82
2023-05-01T21:23:00.829Z,47.88
2023-05-01T21:25:30.035Z,48.12
2023-05-01T21:28:02.028Z,48.27
2023-05-01T21:30:34.748Z,48.21
2023-05-01T21:33:07.998Z,48.31
2023-05-01T21:35:36.025Z,48.27
2023-05-01T21:38:04.611Z,48.16
2023-05-01T21:40:40.151Z,48.14
2023-05-01T21:43:08.746Z,48.56
2023-05-01T21:45:40.573Z,48.83
2023-05-01T21:48:09.447Z,48.89
2023-05-01T21:50:40.116Z,49.00
2023-05-01T21:53:08.329Z,48.67
2023-05-01T21:55:36.128Z,48.52
2023-05-01T21:58:04.124Z,48.55
2023-05-01T22:00:33.018Z,48.53
2023-05-01T22:03:05.773Z,48.68
2023-05-01T22:05:34.495Z,48.71
2023-05-01T22:08:02.225Z,48.59
2023-05-01T22:10:29.961Z,48.67
2023-05-01T22:12:57.726Z,48.69
2023-05-01T22:15:25.773Z,48.66
2023-05-01T22:17:53.626Z,48.70
2023-05-01T22:20:21.384Z,48.71
2023-05-01T22:22:49.603Z,48.85
2023-05-01T22:25:17.458Z,48.86
2023-05-01T22:27:45.438Z,48.88
2023-05-01T22:30:13.372Z,48.86
2023-05-01T22:32:41.264Z,49.01
2023-05-01T22:35:09.257Z,49.11
2023-05-01T22:37:37.006Z,49.12
2023-05-01T22:40:05.734Z,49.56
2023-05-01T22:42:33.433Z,49.77
2023-05-01T22:45:01.152Z,50.04
2023-05-01T22:47:29.026Z,50.33
2023-05-01T22:49:57.058Z,50.85
2023-05-01T22:52:25.154Z,50.88
2023-05-01T22:54:53.095Z,51.26
2023-05-01T22:57:20.921Z,51.29
2023-05-01T22:59:48.895Z,51.45
2023-05-01T23:02:17.608Z,51.64
2023-05-01T23:04:45.848Z,51.93
2023-05-01T23:07:13.781Z,51.98
2023-05-01T23:09:41.861Z,52.32
2023-05-01T23:12:17.701Z,52.42
2023-05-01T23:14:46.356Z,52.59
2023-05-01T23:17:14.985Z,52.94
2023-05-01T23:19:43.772Z,53.05
2023-05-01T23:22:14.645Z,53.09
2023-05-01T23:24:44.748Z,53.20
2023-05-01T23:27:16.943Z,53.09
2023-05-01T23:29:57.339Z,53.28
2023-05-01T23:32:30.721Z,53.41
2023-05-01T23:35:16.176Z,53.30
2023-05-01T23:37:44.020Z,53.39
2023-05-01T23:40:12.065Z,53.35
2023-05-01T23:42:39.842Z,53.19
2023-05-01T23:45:09.745Z,53.14
2023-05-01T23:47:38.708Z,53.09
2023-05-01T23:50:07.278Z,53.12
2023-05-01T23:52:35.369Z,53.21
2023-05-01T23:55:03.202Z,53.12
2023-05-01T23:57:30.939Z,53.11
2023-05-01T23:59:58.829Z,53.29
